ADDS METAR Data INFO
IDs: Format: Raw Decoded Include TAF

Data at: 0059 UTC 22 Oct 2017

PABT 220053Z 01006KT 10SM FEW130 M11/M18 A2946 RMK AO2 SLP997 T11111183
PABT 212353Z 36005KT 10SM FEW130 M11/M18 A2947 RMK AO2 SLP000 4/003 T11061178 11106 21206 58007
PABT 212253Z 36006KT 10SM FEW190 M11/M18 A2947 RMK AO2 SLP002 T11111183
PABT 212153Z 01008KT 10SM FEW190 M13/M18 A2949 RMK AO2 SLP006 T11331178
PABT 212053Z 36008KT 10SM FEW100 M14/M19 A2949 RMK AO2 SLP007 T11391194 58005
PABT 211953Z 35006KT 10SM FEW100 M18/M21 A2950 RMK AO2 SLP013 T11831206
PABT 211853Z 35006KT 10SM FEW100 M20/M22 A2950 RMK AO2 SLP013 T12001222
PABT 211753Z 34007KT 10SM FEW100 M21/M24 A2950 RMK AO2 SLP014 4/003 T12061239 11194 21211 52003
PABT 211653Z 34008KT 10SM CLR M21/M24 A2950 RMK AO2 SLP013 T12061239
PABT 211553Z 33007KT 10SM FEW045 M21/M24 A2950 RMK AO2 SLP013 T12061239
PABT 211453Z 33007KT 10SM CLR M21/M24 A2949 RMK AO2 SLP011 T12061239 51004
PABT 211353Z 34006KT 10SM CLR M21/M23 A2949 RMK AO2 SLP009 T12061233
PABT 211253Z 32008KT 10SM CLR M19/M22 A2949 RMK AO2 SLP007 T11941217
PABT 211153Z 33007KT 10SM CLR M19/M21 A2948 RMK AO2 SLP005 4/003 T11941211 11172 21194 51004
PABT 211053Z 35007KT 10SM CLR M19/M21 A2948 RMK AO2 SLP004 T11941211
PABT 210953Z 33007KT 10SM CLR M19/M21 A2947 RMK AO2 SLP004 T11941211
PABT 210853Z 34006KT 10SM CLR M19/M21 A2947 RMK AO2 SLP002 T11891206 411171206 51011
PABT 210753Z 34007KT 10SM CLR M18/M22 A2946 RMK AO2 SLP000 T11831222
PABT 210653Z 34006KT 10SM CLR M18/M22 A2945 RMK AO2 SLP995 T11781217
PABT 210553Z 33007KT 10SM CLR M17/M21 A2943 RMK AO2 SLP991 4/003 T11721211 11117 21172 51011
PABT 210453Z 32006KT 10SM CLR M17/M21 A2942 RMK AO2 SLP988 T11671206
PABT 210353Z 33005KT 10SM FEW090 M16/M20 A2941 RMK AO2 SLP984 T11611200
PABT 210253Z 34005KT 10SM FEW090 FEW130 M15/M19 A2940 RMK AO2 SLP979 T11501194 53003
PABT 210153Z 36003KT 10SM FEW090 FEW130 M14/M19 A2940 RMK AO2 SLP976 T11391189
PABT 210053Z 01005KT 10SM FEW130 M12/M18 A2939 RMK AO2 SLP975 T11221183
PABT 202353Z 01006KT 10SM FEW180 M12/M18 A2939 RMK AO2 SLP975 4/003 T11171183 11117 21194 51000
PABT 202253Z 02006KT 10SM FEW140 M13/M19 A2939 RMK AO2 SLP975 T11281189
PABT 202153Z 01007KT 10SM FEW140 M15/M18 A2939 RMK AO2 SLP975 T11501183
PABT 202053Z 36006KT 10SM FEW140 M15/M21 A2939 RMK AO2 SLP975 T11501211 52002
PABT 201953Z 36008KT 10SM FEW070 FEW190 M18/M19 A2939 RMK AO2 SLP973 T11781194
PABT 201853Z 34006KT 10SM FEW060 FEW120 M19/M21 A2939 RMK AO2 SLP975 T11891211
PABT 201753Z 36008KT 10SM FEW040 FEW120 M19/M23 A2939 RMK AO2 SLP973 4/003 T11941233 11183 21200 52001
PABT 201653Z 36010KT 10SM CLR M19/M22 A2938 RMK AO2 SLP973 T11941217
PABT 201553Z 36006KT 10SM FEW040 M19/M23 A2939 RMK AO2 SLP972 T11941228
PABT 201453Z 35008KT 10SM FEW040 M19/M23 A2938 RMK AO2 SLP971 T11891228 58004
PABT 201353Z 36009KT 10SM FEW040 M19/M23 A2939 RMK AO2 SLP973 T11891228